sensor_id;sensor_type;location;lat;lon;timestamp;P1;durP1;ratioP1;P2;durP2;ratioP2
61627;SDS011;55193;52.102;5.242;2022-08-19T00:02:58;7.4;;;6.7;;
61627;SDS011;55193;52.102;5.242;2022-08-19T00:04:36;6.0;;;5.11;;
61627;SDS011;55193;52.102;5.242;2022-08-19T00:06:12;9.1;;;5.8;;
61627;SDS011;55193;52.102;5.242;2022-08-19T00:09:26;6.3;;;5.6;;
61627;SDS011;55193;52.102;5.242;2022-08-19T00:11:03;7.0;;;6.0;;
61627;SDS011;55193;52.102;5.242;2022-08-19T00:12:41;8.9;;;6.1;;
61627;SDS011;55193;52.102;5.242;2022-08-19T00:14:18;9.1;;;6.3;;
61627;SDS011;55193;52.102;5.242;2022-08-19T00:17:31;8.2;;;6.1;;
61627;SDS011;55193;52.102;5.242;2022-08-19T00:19:07;6.9;;;5.9;;
61627;SDS011;55193;52.102;5.242;2022-08-19T00:20:45;7.3;;;6.2;;
61627;SDS011;55193;52.102;5.242;2022-08-19T00:23:58;9.81;;;6.4;;
61627;SDS011;55193;52.102;5.242;2022-08-19T00:25:36;7.3;;;5.9;;
61627;SDS011;55193;52.102;5.242;2022-08-19T00:27:12;7.8;;;5.9;;
61627;SDS011;55193;52.102;5.242;2022-08-19T00:30:27;7.3;;;6.1;;
61627;SDS011;55193;52.102;5.242;2022-08-19T00:32:04;6.8;;;6.1;;
61627;SDS011;55193;52.102;5.242;2022-08-19T00:33:41;7.6;;;6.2;;
61627;SDS011;55193;52.102;5.242;2022-08-19T00:35:17;7.6;;;6.4;;
61627;SDS011;55193;52.102;5.242;2022-08-19T00:38:31;7.9;;;6.7;;
61627;SDS011;55193;52.102;5.242;2022-08-19T00:40:10;7.0;;;6.1;;
61627;SDS011;55193;52.102;5.242;2022-08-19T00:41:48;7.4;;;6.3;;
61627;SDS011;55193;52.102;5.242;2022-08-19T00:45:05;8.1;;;6.4;;
61627;SDS011;55193;52.102;5.242;2022-08-19T00:46:48;8.5;;;6.3;;
61627;SDS011;55193;52.102;5.242;2022-08-19T00:48:26;8.2;;;5.9;;
61627;SDS011;55193;52.102;5.242;2022-08-19T00:50:02;7.7;;;6.0;;
61627;SDS011;55193;52.102;5.242;2022-08-19T00:53:22;6.7;;;6.1;;
61627;SDS011;55193;52.102;5.242;2022-08-19T00:55:04;7.1;;;5.9;;
61627;SDS011;55193;52.102;5.242;2022-08-19T00:56:44;6.3;;;5.7;;
61627;SDS011;55193;52.102;5.242;2022-08-19T00:58:22;8.6;;;5.8;;
61627;SDS011;55193;52.102;5.242;2022-08-19T01:01:46;6.9;;;6.1;;
61627;SDS011;55193;52.102;5.242;2022-08-19T01:03:22;7.5;;;5.9;;
61627;SDS011;55193;52.102;5.242;2022-08-19T01:05:00;7.3;;;6.0;;
61627;SDS011;55193;52.102;5.242;2022-08-19T01:06:40;6.7;;;5.8;;
61627;SDS011;55193;52.102;5.242;2022-08-19T01:09:55;7.6;;;6.1;;
61627;SDS011;55193;52.102;5.242;2022-08-19T01:11:33;7.6;;;6.1;;
61627;SDS011;55193;52.102;5.242;2022-08-19T01:13:19;9.1;;;6.3;;
61627;SDS011;55193;52.102;5.242;2022-08-19T01:14:59;8.2;;;5.8;;
61627;SDS011;55193;52.102;5.242;2022-08-19T01:18:15;6.3;;;5.6;;
61627;SDS011;55193;52.102;5.242;2022-08-19T01:19:53;7.0;;;5.5;;
61627;SDS011;55193;52.102;5.242;2022-08-19T01:21:30;6.5;;;5.8;;
61627;SDS011;55193;52.102;5.242;2022-08-19T01:24:56;6.8;;;6.1;;
61627;SDS011;55193;52.102;5.242;2022-08-19T01:26:37;6.7;;;6.0;;
61627;SDS011;55193;52.102;5.242;2022-08-19T01:28:16;7.7;;;6.0;;
61627;SDS011;55193;52.102;5.242;2022-08-19T01:29:54;7.5;;;6.2;;
61627;SDS011;55193;52.102;5.242;2022-08-19T01:33:07;7.9;;;6.2;;
61627;SDS011;55193;52.102;5.242;2022-08-19T01:34:46;7.3;;;6.1;;
61627;SDS011;55193;52.102;5.242;2022-08-19T01:36:24;7.4;;;5.9;;
61627;SDS011;55193;52.102;5.242;2022-08-19T01:38:08;6.6;;;5.9;;
61627;SDS011;55193;52.102;5.242;2022-08-19T01:41:23;6.8;;;5.7;;
61627;SDS011;55193;52.102;5.242;2022-08-19T01:43:00;8.31;;;6.1;;
61627;SDS011;55193;52.102;5.242;2022-08-19T01:44:37;8.9;;;6.0;;
61627;SDS011;55193;52.102;5.242;2022-08-19T01:47:51;7.2;;;6.0;;
61627;SDS011;55193;52.102;5.242;2022-08-19T01:49:29;7.8;;;5.8;;
61627;SDS011;55193;52.102;5.242;2022-08-19T01:51:06;6.8;;;5.7;;
61627;SDS011;55193;52.102;5.242;2022-08-19T01:52:45;7.3;;;5.9;;
61627;SDS011;55193;52.102;5.242;2022-08-19T01:56:00;8.31;;;5.9;;
61627;SDS011;55193;52.102;5.242;2022-08-19T01:57:38;8.5;;;5.8;;
61627;SDS011;55193;52.102;5.242;2022-08-19T01:59:20;7.0;;;6.0;;
61627;SDS011;55193;52.102;5.242;2022-08-19T02:00:59;6.9;;;5.7;;
61627;SDS011;55193;52.102;5.242;2022-08-19T02:04:12;7.4;;;5.7;;
61627;SDS011;55193;52.102;5.242;2022-08-19T02:05:54;7.0;;;6.1;;
61627;SDS011;55193;52.102;5.242;2022-08-19T02:07:32;7.3;;;6.0;;
61627;SDS011;55193;52.102;5.242;2022-08-19T02:10:46;9.9;;;6.4;;
61627;SDS011;55193;52.102;5.242;2022-08-19T02:12:22;7.2;;;6.5;;
61627;SDS011;55193;52.102;5.242;2022-08-19T02:13:58;8.9;;;6.5;;
61627;SDS011;55193;52.102;5.242;2022-08-19T02:17:13;7.4;;;6.4;;
61627;SDS011;55193;52.102;5.242;2022-08-19T02:18:50;7.0;;;6.3;;
61627;SDS011;55193;52.102;5.242;2022-08-19T02:20:26;7.2;;;6.5;;
61627;SDS011;55193;52.102;5.242;2022-08-19T02:22:03;10.4;;;6.9;;
61627;SDS011;55193;52.102;5.242;2022-08-19T02:25:16;7.5;;;6.7;;
61627;SDS011;55193;52.102;5.242;2022-08-19T02:26:52;7.5;;;6.8;;
61627;SDS011;55193;52.102;5.242;2022-08-19T02:28:29;10.9;;;8.4;;
61627;SDS011;55193;52.102;5.242;2022-08-19T02:31:47;12.8;;;11.1;;
61627;SDS011;55193;52.102;5.242;2022-08-19T02:33:23;14.0;;;10.8;;
61627;SDS011;55193;52.102;5.242;2022-08-19T02:35:00;10.8;;;9.5;;
61627;SDS011;55193;52.102;5.242;2022-08-19T02:36:36;10.3;;;9.1;;
61627;SDS011;55193;52.102;5.242;2022-08-19T02:40:06;10.3;;;9.21;;
61627;SDS011;55193;52.102;5.242;2022-08-19T02:41:44;12.0;;;9.71;;
61627;SDS011;55193;52.102;5.242;2022-08-19T02:43:20;12.0;;;9.9;;
61627;SDS011;55193;52.102;5.242;2022-08-19T02:44:58;13.5;;;10.6;;
61627;SDS011;55193;52.102;5.242;2022-08-19T02:48:11;14.3;;;10.8;;
61627;SDS011;55193;52.102;5.242;2022-08-19T02:49:49;12.8;;;11.4;;
61627;SDS011;55193;52.102;5.242;2022-08-19T02:51:26;13.9;;;10.6;;
61627;SDS011;55193;52.102;5.242;2022-08-19T02:54:45;13.5;;;11.0;;
61627;SDS011;55193;52.102;5.242;2022-08-19T02:56:22;13.2;;;10.9;;
61627;SDS011;55193;52.102;5.242;2022-08-19T02:57:59;12.1;;;10.5;;
61627;SDS011;55193;52.102;5.242;2022-08-19T02:59:36;13.4;;;10.6;;
61627;SDS011;55193;52.102;5.242;2022-08-19T03:02:57;13.2;;;11.4;;
61627;SDS011;55193;52.102;5.242;2022-08-19T03:04:33;11.7;;;10.5;;
61627;SDS011;55193;52.102;5.242;2022-08-19T03:06:10;11.8;;;9.81;;
61627;SDS011;55193;52.102;5.242;2022-08-19T03:09:25;11.8;;;9.81;;
61627;SDS011;55193;52.102;5.242;2022-08-19T03:11:03;12.5;;;9.71;;
61627;SDS011;55193;52.102;5.242;2022-08-19T03:12:40;11.5;;;9.5;;
61627;SDS011;55193;52.102;5.242;2022-08-19T03:14:18;11.7;;;9.4;;
61627;SDS011;55193;52.102;5.242;2022-08-19T03:17:30;12.4;;;9.21;;
61627;SDS011;55193;52.102;5.242;2022-08-19T03:19:06;10.5;;;9.0;;
61627;SDS011;55193;52.102;5.242;2022-08-19T03:20:43;12.2;;;9.71;;
61627;SDS011;55193;52.102;5.242;2022-08-19T03:23:59;12.0;;;9.81;;
61627;SDS011;55193;52.102;5.242;2022-08-19T03:25:43;11.9;;;9.6;;
61627;SDS011;55193;52.102;5.242;2022-08-19T03:27:24;11.2;;;9.31;;
61627;SDS011;55193;52.102;5.242;2022-08-19T03:29:02;11.3;;;9.5;;
61627;SDS011;55193;52.102;5.242;2022-08-19T03:32:19;11.6;;;9.81;;
61627;SDS011;55193;52.102;5.242;2022-08-19T03:33:55;11.8;;;9.4;;
61627;SDS011;55193;52.102;5.242;2022-08-19T03:35:31;11.1;;;8.71;;
61627;SDS011;55193;52.102;5.242;2022-08-19T03:38:49;11.0;;;9.81;;
61627;SDS011;55193;52.102;5.242;2022-08-19T03:40:30;11.9;;;9.5;;
61627;SDS011;55193;52.102;5.242;2022-08-19T03:42:06;12.3;;;9.81;;
61627;SDS011;55193;52.102;5.242;2022-08-19T03:43:46;11.0;;;9.6;;
61627;SDS011;55193;52.102;5.242;2022-08-19T03:47:00;11.7;;;10.0;;
61627;SDS011;55193;52.102;5.242;2022-08-19T03:48:36;12.5;;;9.5;;
61627;SDS011;55193;52.102;5.242;2022-08-19T03:50:14;11.2;;;9.31;;
61627;SDS011;55193;52.102;5.242;2022-08-19T03:53:30;12.6;;;9.5;;
61627;SDS011;55193;52.102;5.242;2022-08-19T03:55:08;11.8;;;9.9;;
61627;SDS011;55193;52.102;5.242;2022-08-19T03:56:46;13.4;;;10.7;;
61627;SDS011;55193;52.102;5.242;2022-08-19T03:58:25;13.4;;;10.3;;
61627;SDS011;55193;52.102;5.242;2022-08-19T04:01:42;12.6;;;10.6;;
61627;SDS011;55193;52.102;5.242;2022-08-19T04:03:19;14.0;;;11.0;;
61627;SDS011;55193;52.102;5.242;2022-08-19T04:04:55;12.9;;;10.7;;
61627;SDS011;55193;52.102;5.242;2022-08-19T04:06:32;14.2;;;10.6;;
61627;SDS011;55193;52.102;5.242;2022-08-19T04:09:47;13.7;;;10.5;;
61627;SDS011;55193;52.102;5.242;2022-08-19T04:11:24;13.4;;;10.6;;
61627;SDS011;55193;52.102;5.242;2022-08-19T04:13:04;15.2;;;11.0;;
61627;SDS011;55193;52.102;5.242;2022-08-19T04:16:17;13.6;;;11.0;;
61627;SDS011;55193;52.102;5.242;2022-08-19T04:17:56;16.0;;;11.9;;
61627;SDS011;55193;52.102;5.242;2022-08-19T04:19:32;15.4;;;12.2;;
61627;SDS011;55193;52.102;5.242;2022-08-19T04:21:14;14.8;;;12.2;;
61627;SDS011;55193;52.102;5.242;2022-08-19T04:24:29;15.0;;;12.2;;
61627;SDS011;55193;52.102;5.242;2022-08-19T04:26:06;15.5;;;12.7;;
61627;SDS011;55193;52.102;5.242;2022-08-19T04:27:46;16.7;;;13.5;;
61627;SDS011;55193;52.102;5.242;2022-08-19T04:31:01;17.91;;;13.3;;
61627;SDS011;55193;52.102;5.242;2022-08-19T04:32:37;17.7;;;13.9;;
61627;SDS011;55193;52.102;5.242;2022-08-19T04:34:16;18.0;;;14.2;;
61627;SDS011;55193;52.102;5.242;2022-08-19T04:35:58;20.2;;;14.6;;
61627;SDS011;55193;52.102;5.242;2022-08-19T04:39:11;24.1;;;16.5;;
61627;SDS011;55193;52.102;5.242;2022-08-19T04:43:48;24.0;;;17.5;;
61627;SDS011;55193;52.102;5.242;2022-08-19T04:45:23;21.9;;;16.5;;
61627;SDS011;55193;52.102;5.242;2022-08-19T04:47:00;22.8;;;17.11;;
61627;SDS011;55193;52.102;5.242;2022-08-19T04:48:37;23.6;;;16.9;;
61627;SDS011;55193;52.102;5.242;2022-08-19T04:51:54;23.4;;;16.2;;
61627;SDS011;55193;52.102;5.242;2022-08-19T04:53:31;21.5;;;16.2;;
61627;SDS011;55193;52.102;5.242;2022-08-19T04:55:10;23.4;;;16.8;;
61627;SDS011;55193;52.102;5.242;2022-08-19T04:56:49;24.2;;;17.11;;
61627;SDS011;55193;52.102;5.242;2022-08-19T05:00:04;26.9;;;17.5;;
61627;SDS011;55193;52.102;5.242;2022-08-19T05:01:42;24.7;;;17.0;;
61627;SDS011;55193;52.102;5.242;2022-08-19T05:03:18;22.6;;;17.0;;
61627;SDS011;55193;52.102;5.242;2022-08-19T05:06:34;22.4;;;16.9;;
61627;SDS011;55193;52.102;5.242;2022-08-19T05:08:12;20.9;;;15.8;;
61627;SDS011;55193;52.102;5.242;2022-08-19T05:09:50;21.6;;;16.5;;
61627;SDS011;55193;52.102;5.242;2022-08-19T05:11:27;23.4;;;16.3;;
61627;SDS011;55193;52.102;5.242;2022-08-19T05:14:49;20.9;;;15.7;;
61627;SDS011;55193;52.102;5.242;2022-08-19T05:16:25;21.6;;;16.0;;
61627;SDS011;55193;52.102;5.242;2022-08-19T05:24:29;21.1;;;16.3;;
61627;SDS011;55193;52.102;5.242;2022-08-19T05:26:06;22.2;;;16.4;;
61627;SDS011;55193;52.102;5.242;2022-08-19T05:29:19;22.2;;;16.4;;
61627;SDS011;55193;52.102;5.242;2022-08-19T05:30:57;20.6;;;15.6;;
61627;SDS011;55193;52.102;5.242;2022-08-19T05:32:33;20.9;;;14.8;;
61627;SDS011;55193;52.102;5.242;2022-08-19T05:35:49;19.91;;;14.8;;
61627;SDS011;55193;52.102;5.242;2022-08-19T05:37:27;20.5;;;15.8;;
61627;SDS011;55193;52.102;5.242;2022-08-19T05:39:03;22.4;;;17.11;;
61627;SDS011;55193;52.102;5.242;2022-08-19T05:40:41;20.7;;;16.0;;
61627;SDS011;55193;52.102;5.242;2022-08-19T05:43:57;22.7;;;17.41;;
61627;SDS011;55193;52.102;5.242;2022-08-19T05:45:37;25.4;;;18.7;;
61627;SDS011;55193;52.102;5.242;2022-08-19T05:47:15;29.5;;;20.11;;
61627;SDS011;55193;52.102;5.242;2022-08-19T05:50:30;27.1;;;19.3;;
61627;SDS011;55193;52.102;5.242;2022-08-19T05:52:07;27.7;;;19.0;;
61627;SDS011;55193;52.102;5.242;2022-08-19T05:53:46;30.6;;;20.3;;
61627;SDS011;55193;52.102;5.242;2022-08-19T05:55:23;28.3;;;20.3;;
61627;SDS011;55193;52.102;5.242;2022-08-19T05:58:37;31.3;;;21.0;;
61627;SDS011;55193;52.102;5.242;2022-08-19T06:00:14;34.21;;;23.7;;
61627;SDS011;55193;52.102;5.242;2022-08-19T06:01:54;32.3;;;22.4;;
61627;SDS011;55193;52.102;5.242;2022-08-19T06:05:10;36.1;;;24.9;;
61627;SDS011;55193;52.102;5.242;2022-08-19T06:06:47;36.9;;;25.8;;
61627;SDS011;55193;52.102;5.242;2022-08-19T06:08:24;35.4;;;24.9;;
61627;SDS011;55193;52.102;5.242;2022-08-19T06:10:02;42.7;;;27.7;;
61627;SDS011;55193;52.102;5.242;2022-08-19T06:13:20;42.9;;;28.0;;
61627;SDS011;55193;52.102;5.242;2022-08-19T06:14:57;49.6;;;32.1;;
61627;SDS011;55193;52.102;5.242;2022-08-19T06:16:35;47.2;;;30.7;;
61627;SDS011;55193;52.102;5.242;2022-08-19T06:19:51;49.6;;;31.7;;
61627;SDS011;55193;52.102;5.242;2022-08-19T06:21:28;50.3;;;32.8;;
61627;SDS011;55193;52.102;5.242;2022-08-19T06:23:06;49.7;;;31.8;;
61627;SDS011;55193;52.102;5.242;2022-08-19T06:24:43;55.7;;;35.5;;
61627;SDS011;55193;52.102;5.242;2022-08-19T06:27:57;57.4;;;34.81;;
61627;SDS011;55193;52.102;5.242;2022-08-19T06:29:34;54.4;;;34.9;;
61627;SDS011;55193;52.102;5.242;2022-08-19T06:31:14;54.6;;;33.4;;
61627;SDS011;55193;52.102;5.242;2022-08-19T06:34:30;58.4;;;36.0;;
61627;SDS011;55193;52.102;5.242;2022-08-19T06:36:15;58.5;;;35.9;;
61627;SDS011;55193;52.102;5.242;2022-08-19T06:37:53;62.6;;;36.71;;
61627;SDS011;55193;52.102;5.242;2022-08-19T06:39:30;64.1;;;37.21;;
61627;SDS011;55193;52.102;5.242;2022-08-19T06:42:50;74.5;;;41.4;;
61627;SDS011;55193;52.102;5.242;2022-08-19T06:44:29;72.41;;;41.2;;
61627;SDS011;55193;52.102;5.242;2022-08-19T06:46:09;75.8;;;41.7;;
61627;SDS011;55193;52.102;5.242;2022-08-19T06:47:48;71.61;;;40.21;;
61627;SDS011;55193;52.102;5.242;2022-08-19T06:51:08;74.11;;;40.5;;
61627;SDS011;55193;52.102;5.242;2022-08-19T06:52:44;81.8;;;44.0;;
61627;SDS011;55193;52.102;5.242;2022-08-19T06:54:20;74.61;;;40.5;;
61627;SDS011;55193;52.102;5.242;2022-08-19T06:57:36;74.41;;;40.9;;
61627;SDS011;55193;52.102;5.242;2022-08-19T06:59:13;70.8;;;40.71;;
61627;SDS011;55193;52.102;5.242;2022-08-19T07:01:01;73.2;;;41.2;;
61627;SDS011;55193;52.102;5.242;2022-08-19T07:02:39;65.91;;;39.1;;
61627;SDS011;55193;52.102;5.242;2022-08-19T07:05:55;62.5;;;36.81;;
61627;SDS011;55193;52.102;5.242;2022-08-19T07:07:34;69.8;;;39.1;;
61627;SDS011;55193;52.102;5.242;2022-08-19T07:09:12;69.11;;;38.5;;
61627;SDS011;55193;52.102;5.242;2022-08-19T07:10:53;74.2;;;41.8;;
61627;SDS011;55193;52.102;5.242;2022-08-19T07:14:07;64.6;;;37.81;;
61627;SDS011;55193;52.102;5.242;2022-08-19T07:15:46;68.0;;;39.4;;
61627;SDS011;55193;52.102;5.242;2022-08-19T07:17:22;77.0;;;40.31;;
61627;SDS011;55193;52.102;5.242;2022-08-19T07:20:36;70.3;;;40.31;;
61627;SDS011;55193;52.102;5.242;2022-08-19T07:22:14;68.41;;;38.5;;
61627;SDS011;55193;52.102;5.242;2022-08-19T07:23:51;63.5;;;38.6;;
61627;SDS011;55193;52.102;5.242;2022-08-19T07:25:28;64.91;;;37.71;;
61627;SDS011;55193;52.102;5.242;2022-08-19T07:28:43;60.9;;;37.31;;
61627;SDS011;55193;52.102;5.242;2022-08-19T07:30:23;60.4;;;37.21;;
61627;SDS011;55193;52.102;5.242;2022-08-19T07:31:59;63.2;;;39.1;;
61627;SDS011;55193;52.102;5.242;2022-08-19T07:35:14;63.0;;;37.4;;
61627;SDS011;55193;52.102;5.242;2022-08-19T07:36:50;62.5;;;37.4;;
61627;SDS011;55193;52.102;5.242;2022-08-19T07:38:28;59.7;;;37.21;;
61627;SDS011;55193;52.102;5.242;2022-08-19T07:40:05;57.2;;;36.0;;
61627;SDS011;55193;52.102;5.242;2022-08-19T07:43:24;58.7;;;36.4;;
61627;SDS011;55193;52.102;5.242;2022-08-19T07:45:03;59.5;;;37.4;;
61627;SDS011;55193;52.102;5.242;2022-08-19T07:46:48;57.0;;;35.71;;
61627;SDS011;55193;52.102;5.242;2022-08-19T07:48:28;56.3;;;34.6;;
61627;SDS011;55193;52.102;5.242;2022-08-19T07:51:47;61.1;;;37.6;;
61627;SDS011;55193;52.102;5.242;2022-08-19T07:53:25;60.0;;;36.4;;
61627;SDS011;55193;52.102;5.242;2022-08-19T07:55:04;61.9;;;36.4;;
61627;SDS011;55193;52.102;5.242;2022-08-19T07:56:42;55.9;;;36.0;;
61627;SDS011;55193;52.102;5.242;2022-08-19T07:59:58;52.4;;;33.21;;
61627;SDS011;55193;52.102;5.242;2022-08-19T08:01:35;54.8;;;35.31;;
61627;SDS011;55193;52.102;5.242;2022-08-19T08:03:12;55.1;;;34.9;;
61627;SDS011;55193;52.102;5.242;2022-08-19T08:09:29;48.5;;;31.2;;
61627;SDS011;55193;52.102;5.242;2022-08-19T08:11:08;52.5;;;32.1;;
61627;SDS011;55193;52.102;5.242;2022-08-19T08:12:45;52.6;;;32.4;;
61627;SDS011;55193;52.102;5.242;2022-08-19T08:14:23;48.0;;;32.0;;
61627;SDS011;55193;52.102;5.242;2022-08-19T08:16:03;48.5;;;31.1;;
61627;SDS011;55193;52.102;5.242;2022-08-19T08:17:40;47.4;;;30.3;;
61627;SDS011;55193;52.102;5.242;2022-08-19T08:20:56;50.5;;;32.21;;
61627;SDS011;55193;52.102;5.242;2022-08-19T08:23:38;50.5;;;32.21;;
61627;SDS011;55193;52.102;5.242;2022-08-19T08:25:14;50.4;;;32.5;;
61627;SDS011;55193;52.102;5.242;2022-08-19T08:26:56;48.0;;;30.3;;
61627;SDS011;55193;52.102;5.242;2022-08-19T08:28:35;47.4;;;31.6;;
61627;SDS011;55193;52.102;5.242;2022-08-19T08:30:15;46.8;;;31.8;;
61627;SDS011;55193;52.102;5.242;2022-08-19T08:33:30;47.9;;;33.0;;
61627;SDS011;55193;52.102;5.242;2022-08-19T08:35:08;46.7;;;31.6;;
61627;SDS011;55193;52.102;5.242;2022-08-19T08:36:48;47.1;;;30.8;;
61627;SDS011;55193;52.102;5.242;2022-08-19T08:40:02;53.4;;;33.3;;
61627;SDS011;55193;52.102;5.242;2022-08-19T08:41:43;51.2;;;33.9;;
61627;SDS011;55193;52.102;5.242;2022-08-19T08:43:34;49.7;;;32.8;;
61627;SDS011;55193;52.102;5.242;2022-08-19T08:45:15;47.4;;;31.8;;
61627;SDS011;55193;52.102;5.242;2022-08-19T08:46:55;50.0;;;33.4;;
61627;SDS011;55193;52.102;5.242;2022-08-19T08:50:21;46.9;;;32.0;;
61627;SDS011;55193;52.102;5.242;2022-08-19T08:52:05;45.2;;;31.0;;
61627;SDS011;55193;52.102;5.242;2022-08-19T08:53:48;47.0;;;33.21;;
61627;SDS011;55193;52.102;5.242;2022-08-19T08:55:27;49.6;;;31.2;;
61627;SDS011;55193;52.102;5.242;2022-08-19T08:58:56;45.6;;;31.6;;
61627;SDS011;55193;52.102;5.242;2022-08-19T09:00:38;44.1;;;30.1;;
61627;SDS011;55193;52.102;5.242;2022-08-19T09:02:20;50.1;;;31.9;;
61627;SDS011;55193;52.102;5.242;2022-08-19T09:03:56;43.6;;;29.8;;
61627;SDS011;55193;52.102;5.242;2022-08-19T09:07:29;39.71;;;28.1;;
61627;SDS011;55193;52.102;5.242;2022-08-19T09:09:32;39.81;;;27.5;;
61627;SDS011;55193;52.102;5.242;2022-08-19T09:11:17;43.3;;;27.9;;
61627;SDS011;55193;52.102;5.242;2022-08-19T09:13:08;38.9;;;27.0;;
61627;SDS011;55193;52.102;5.242;2022-08-19T09:15:01;38.31;;;27.4;;
61627;SDS011;55193;52.102;5.242;2022-08-19T09:18:18;56.8;;;31.4;;
61627;SDS011;55193;52.102;5.242;2022-08-19T09:21:35;36.4;;;26.1;;
61627;SDS011;55193;52.102;5.242;2022-08-19T09:23:11;38.5;;;26.5;;
61627;SDS011;55193;52.102;5.242;2022-08-19T09:24:48;37.71;;;27.4;;
61627;SDS011;55193;52.102;5.242;2022-08-19T09:28:03;38.1;;;26.0;;
61627;SDS011;55193;52.102;5.242;2022-08-19T09:29:39;38.9;;;28.5;;
61627;SDS011;55193;52.102;5.242;2022-08-19T09:31:16;35.4;;;27.1;;
61627;SDS011;55193;52.102;5.242;2022-08-19T09:33:00;33.8;;;26.1;;
61627;SDS011;55193;52.102;5.242;2022-08-19T09:36:14;36.31;;;26.9;;
61627;SDS011;55193;52.102;5.242;2022-08-19T09:37:53;32.4;;;26.1;;
61627;SDS011;55193;52.102;5.242;2022-08-19T09:39:30;33.8;;;26.7;;
61627;SDS011;55193;52.102;5.242;2022-08-19T09:42:48;43.1;;;30.1;;
61627;SDS011;55193;52.102;5.242;2022-08-19T09:44:24;36.1;;;28.9;;
61627;SDS011;55193;52.102;5.242;2022-08-19T09:46:00;37.71;;;29.4;;
61627;SDS011;55193;52.102;5.242;2022-08-19T09:47:38;34.6;;;27.4;;
61627;SDS011;55193;52.102;5.242;2022-08-19T09:50:52;36.6;;;28.9;;
61627;SDS011;55193;52.102;5.242;2022-08-19T09:52:28;34.1;;;27.3;;
61627;SDS011;55193;52.102;5.242;2022-08-19T09:54:04;33.1;;;26.4;;
61627;SDS011;55193;52.102;5.242;2022-08-19T09:57:18;34.0;;;26.6;;
61627;SDS011;55193;52.102;5.242;2022-08-19T09:58:54;34.81;;;26.7;;
61627;SDS011;55193;52.102;5.242;2022-08-19T10:00:30;37.71;;;28.3;;
61627;SDS011;55193;52.102;5.242;2022-08-19T10:03:47;35.0;;;26.6;;
61627;SDS011;55193;52.102;5.242;2022-08-19T10:05:56;34.1;;;27.4;;
61627;SDS011;55193;52.102;5.242;2022-08-19T10:07:35;35.0;;;27.6;;
61627;SDS011;55193;52.102;5.242;2022-08-19T10:09:12;36.21;;;28.0;;
61627;SDS011;55193;52.102;5.242;2022-08-19T10:10:50;36.5;;;28.6;;
61627;SDS011;55193;52.102;5.242;2022-08-19T10:14:05;35.81;;;27.3;;
61627;SDS011;55193;52.102;5.242;2022-08-19T10:15:43;38.21;;;29.5;;
61627;SDS011;55193;52.102;5.242;2022-08-19T10:17:20;45.3;;;32.1;;
61627;SDS011;55193;52.102;5.242;2022-08-19T10:18:56;39.6;;;30.9;;
61627;SDS011;55193;52.102;5.242;2022-08-19T10:22:13;38.0;;;30.2;;
61627;SDS011;55193;52.102;5.242;2022-08-19T10:23:52;40.5;;;31.9;;
61627;SDS011;55193;52.102;5.242;2022-08-19T10:25:31;39.71;;;31.7;;
61627;SDS011;55193;52.102;5.242;2022-08-19T10:28:46;42.0;;;30.6;;
61627;SDS011;55193;52.102;5.242;2022-08-19T10:30:23;38.9;;;31.1;;
61627;SDS011;55193;52.102;5.242;2022-08-19T10:32:00;42.2;;;31.8;;
61627;SDS011;55193;52.102;5.242;2022-08-19T10:33:38;41.0;;;31.7;;
61627;SDS011;55193;52.102;5.242;2022-08-19T10:36:52;43.8;;;31.9;;
61627;SDS011;55193;52.102;5.242;2022-08-19T10:38:28;43.9;;;33.0;;
61627;SDS011;55193;52.102;5.242;2022-08-19T10:40:06;45.5;;;32.8;;
61627;SDS011;55193;52.102;5.242;2022-08-19T10:43:20;42.5;;;33.21;;
61627;SDS011;55193;52.102;5.242;2022-08-19T10:44:57;44.7;;;32.8;;
61627;SDS011;55193;52.102;5.242;2022-08-19T10:46:35;38.21;;;31.5;;
61627;SDS011;55193;52.102;5.242;2022-08-19T10:48:16;40.5;;;30.9;;
61627;SDS011;55193;52.102;5.242;2022-08-19T10:52:46;44.6;;;34.0;;
61627;SDS011;55193;52.102;5.242;2022-08-19T10:58:26;48.4;;;35.31;;
61627;SDS011;55193;52.102;5.242;2022-08-19T11:00:03;42.6;;;32.71;;
61627;SDS011;55193;52.102;5.242;2022-08-19T11:01:40;40.71;;;32.4;;
61627;SDS011;55193;52.102;5.242;2022-08-19T11:03:19;43.2;;;33.5;;
61627;SDS011;55193;52.102;5.242;2022-08-19T11:04:56;47.9;;;34.5;;
61627;SDS011;55193;52.102;5.242;2022-08-19T11:08:11;44.1;;;33.21;;
61627;SDS011;55193;52.102;5.242;2022-08-19T11:09:47;40.71;;;32.1;;
61627;SDS011;55193;52.102;5.242;2022-08-19T11:11:24;46.6;;;33.8;;
61627;SDS011;55193;52.102;5.242;2022-08-19T11:14:36;43.6;;;33.4;;
61627;SDS011;55193;52.102;5.242;2022-08-19T11:16:14;44.9;;;33.3;;
61627;SDS011;55193;52.102;5.242;2022-08-19T11:17:54;44.8;;;32.71;;
61627;SDS011;55193;52.102;5.242;2022-08-19T11:21:10;44.8;;;32.71;;
61627;SDS011;55193;52.102;5.242;2022-08-19T11:22:49;42.1;;;31.9;;
61627;SDS011;55193;52.102;5.242;2022-08-19T11:24:27;47.7;;;33.1;;
61627;SDS011;55193;52.102;5.242;2022-08-19T11:26:04;42.5;;;31.5;;
61627;SDS011;55193;52.102;5.242;2022-08-19T11:29:20;43.0;;;31.8;;
61627;SDS011;55193;52.102;5.242;2022-08-19T11:30:58;40.21;;;31.1;;
61627;SDS011;55193;52.102;5.242;2022-08-19T11:32:36;41.1;;;31.4;;
61627;SDS011;55193;52.102;5.242;2022-08-19T11:35:57;42.4;;;32.21;;
61627;SDS011;55193;52.102;5.242;2022-08-19T11:37:37;41.9;;;32.3;;
61627;SDS011;55193;52.102;5.242;2022-08-19T11:39:14;44.8;;;33.3;;
61627;SDS011;55193;52.102;5.242;2022-08-19T11:40:54;37.9;;;29.8;;
61627;SDS011;55193;52.102;5.242;2022-08-19T11:44:40;40.71;;;30.8;;
61627;SDS011;55193;52.102;5.242;2022-08-19T11:46:17;40.0;;;30.4;;
61627;SDS011;55193;52.102;5.242;2022-08-19T11:47:53;41.5;;;31.2;;
61627;SDS011;55193;52.102;5.242;2022-08-19T11:49:31;37.21;;;30.9;;
61627;SDS011;55193;52.102;5.242;2022-08-19T11:51:09;38.9;;;30.4;;
61627;SDS011;55193;52.102;5.242;2022-08-19T11:54:30;36.4;;;29.4;;
61627;SDS011;55193;52.102;5.242;2022-08-19T11:56:08;37.9;;;30.0;;
61627;SDS011;55193;52.102;5.242;2022-08-19T11:57:46;38.4;;;30.9;;
61627;SDS011;55193;52.102;5.242;2022-08-19T11:59:22;37.0;;;31.4;;
61627;SDS011;55193;52.102;5.242;2022-08-19T12:02:35;35.9;;;29.3;;
61627;SDS011;55193;52.102;5.242;2022-08-19T12:04:12;37.1;;;30.0;;
61627;SDS011;55193;52.102;5.242;2022-08-19T12:05:48;38.81;;;30.4;;
61627;SDS011;55193;52.102;5.242;2022-08-19T12:09:03;35.1;;;30.2;;
61627;SDS011;55193;52.102;5.242;2022-08-19T12:10:43;34.4;;;29.1;;
61627;SDS011;55193;52.102;5.242;2022-08-19T12:12:19;36.4;;;28.7;;
61627;SDS011;55193;52.102;5.242;2022-08-19T12:15:35;37.31;;;29.6;;
61627;SDS011;55193;52.102;5.242;2022-08-19T12:17:11;39.0;;;31.2;;
61627;SDS011;55193;52.102;5.242;2022-08-19T12:18:50;40.81;;;31.6;;
61627;SDS011;55193;52.102;5.242;2022-08-19T12:20:27;37.81;;;31.3;;
61627;SDS011;55193;52.102;5.242;2022-08-19T12:23:41;37.71;;;31.0;;
61627;SDS011;55193;52.102;5.242;2022-08-19T12:25:19;33.5;;;28.0;;
61627;SDS011;55193;52.102;5.242;2022-08-19T12:26:56;32.8;;;27.9;;
61627;SDS011;55193;52.102;5.242;2022-08-19T12:30:10;31.5;;;26.6;;
61627;SDS011;55193;52.102;5.242;2022-08-19T12:31:48;35.81;;;26.4;;
61627;SDS011;55193;52.102;5.242;2022-08-19T12:33:27;33.4;;;27.1;;
61627;SDS011;55193;52.102;5.242;2022-08-19T12:35:04;30.0;;;24.7;;
61627;SDS011;55193;52.102;5.242;2022-08-19T12:38:18;32.9;;;26.2;;
61627;SDS011;55193;52.102;5.242;2022-08-19T12:39:55;28.5;;;24.2;;
61627;SDS011;55193;52.102;5.242;2022-08-19T12:41:32;30.2;;;23.9;;
61627;SDS011;55193;52.102;5.242;2022-08-19T12:44:45;30.3;;;24.6;;
61627;SDS011;55193;52.102;5.242;2022-08-19T12:46:21;29.4;;;22.4;;
61627;SDS011;55193;52.102;5.242;2022-08-19T12:47:57;27.1;;;21.6;;
61627;SDS011;55193;52.102;5.242;2022-08-19T12:49:37;26.1;;;21.7;;
61627;SDS011;55193;52.102;5.242;2022-08-19T12:52:53;24.4;;;20.5;;
61627;SDS011;55193;52.102;5.242;2022-08-19T12:54:30;23.8;;;18.2;;
61627;SDS011;55193;52.102;5.242;2022-08-19T12:56:07;23.8;;;18.2;;